Key Lake, Canada
Current Conditions -  °F | °C
As of 2:00 AM on Tuesday 21 Oct 2014 (Local Time) from CYKJ Reporting Station
Clear Clear  
Wind Chill: 36°   Ceiling: Unl
Heat Index: 36°   Visibility: 9mi
Dew Point: 34°   Wind: 0mph
Humidity: 93%   Direction: NA
Pressure: 29.53"   Gusts: NA
Location:  57.21°N, 105.66°W
Report Text: CYKJ 210800Z AUTO 00000KT 9SM CLR 02/01 A2953 RMK SLP021
Loading
Personal Weather Stations






























Interactive Weather Map
Tropical Storm Tracking
New forecast layout! Learn more

10-Day Weather Forecast

Advertisements
Track Severe Weather on mobile